Bookmark and Share
Track history (hours):
 

Lill Grethe

Last reported at 2014-Apr-11 02:04 UTC. Time now 2014-Apr-24 03:56 UTC.
Position N 67°14' E 014°13'.
Warning: this ship's position is 13 days out of date.

Length 10 m.

Type: Fishing. MMSI: 257005610.

NotesDate/timePositionNaut miles runAvg speedWind from/ knotsBaromVisibWave heightAir tempDewpointWater temp
2014-Apr-11 02:04N 67°14' E 014°13'3 5.9
2014-Apr-11 01:33N 67°16' E 014°18'2 1.7
2014-Apr-11 00:32N 67°17' E 014°22'0 0.0
2014-Apr-10 23:29N 67°17' E 014°22'0 0.0
2014-Apr-10 22:29N 67°17' E 014°22'0 0.0
2014-Apr-10 21:32N 67°17' E 014°22'0 0.0
2014-Apr-10 20:32N 67°17' E 014°22'0 0.0
2014-Apr-10 19:29N 67°17' E 014°22'0 0.0
2014-Apr-10 18:29N 67°17' E 014°22'0 0.0
2014-Apr-10 17:32N 67°17' E 014°22'0 0.0
2014-Apr-10 16:33N 67°17' E 014°22'0 0.0
2014-Apr-10 15:33N 67°17' E 014°22'0 0.5
2014-Apr-10 14:34N 67°17' E 014°22'  
2014-Apr-08 02:33N 69°37' E 018°55'2 1.9
2014-Apr-08 01:33N 69°39' E 018°58'0 0.0
2014-Apr-08 00:33N 69°39' E 018°58'0 0.0
2014-Apr-07 23:33N 69°39' E 018°58'0 0.0
2014-Apr-07 22:33N 69°39' E 018°58'0 0.0
2014-Apr-07 21:33N 69°39' E 018°58'0 0.0
2014-Apr-07 20:33N 69°39' E 018°58'0 0.0
2014-Apr-07 19:33N 69°39' E 018°58'0 0.0
2014-Apr-07 17:29N 69°39' E 018°58'114 2.8
2014-Apr-06 01:24N 70°40' E 023°41'0 0.0
2014-Apr-05 05:06N 70°40' E 023°41'0 0.0
2014-Apr-05 04:30N 70°40' E 023°41'0 0.0
2014-Apr-04 13:12N 70°40' E 023°41'0 0.0
2014-Apr-04 10:15N 70°40' E 023°41'0 0.0
2014-Apr-04 09:27N 70°40' E 023°41'0 0.0
2014-Apr-03 21:25N 70°40' E 023°41'0 0.0
2014-Apr-03 19:10N 70°40' E 023°41'0 0.1
2014-Apr-03 16:31N 70°40' E 023°41'  

Dump ship's entire track history

sailing weather and tide predictions

Lill Grethe — LG3433 — position and weather